Etusivu
METAR-TAF:

METAR-TAF

Lentoasemat :

Karup, Tanska

Leveyspiiri: 56-18N, Pituuspiiri: 009-07E, korkeus merenpinnasta: 52 m

Tämänhetkinen sää

Tämä raportti tehtiin 8 minuuttia sitten, kello 08.20 UTC
Tuuli 9 kn kaakosta, vaihdellen idän ja etelän/kaakon välillä
Lämpötila 17°C
Kosteus 36%
Ilmanpaine 1020 hPa
Näkyvyys 10 km tai enemmän

METAR: EKKA 220820Z AUTO 13009KT 100V160 9999 NCD 17/02 Q1020

Aika: 10:28 (08:28 UTC)

Sääennuste

Tämä raportti tehtiin 3 tuntia ja 11 minuuttia sitten, kello 05.17 UTC
Ennuste voimassa 22. päivästä klo 06 UTC - 23. päivään klo 06 UTC
Tuuli 5 kn idästä
Näkyvyys 10 km tai enemmän
Muutamia pilviä 20000 ft:n korkeudessa
Tulossa
22. päivästä klo 06 UTC - 22. päivään klo 09 UTC
Tuuli 10 kn idästä/kaakosta
Ajoittain
22. päivästä klo 11 UTC - 22. päivään klo 18 UTC
Tuuli 12 kn idästä/kaakosta puuskistuen 24 kn:hen

TAF: EKKA 220517Z 2206/2306 10005KT 9999 FEW200 BECMG 2206/2209 12010KT TEMPO 2211/2218 12012G24KT

Säähavainnot ja -ennusteet yli 4000 lentoasemalta (METAR- ja TAF-raportit).

Käytössä olevat sääasemat on merkitty karttaan keltaisilla ja punaisilla pisteillä.

Aseta hiiri pisteen päälle nähdäksesi sääaseman nimen.

Klikkaa sitten nähdäksesi säähavainnot ja -ennusteet.

Kartan vaihtaminen: klikkaa mustalla rastilla varustettuja vihreitä pisteitä, niin voit zoomata sisään; viivalla varustettua vihreää pistettä, niin voit zoomata ulos tai vihreitä nuolia, niin pääset viereisille kartoille.


METAR-TAF: